Latest Weather Observations for Point Perpendicular

IDN60801

Issued at 2:34 pm EST Sunday 26 June 2016 (issued every 30 minutes, with the page automatically refreshed every 10 minutes)

About weather observations | Map of weather stations | Latest weather observations for NSW | Other Formats
Station Details ID: 068151 Name: POINT PERPENDICULAR AWS Lat: -35.09 Lon: 150.80 Height: 85.0 m
Data from the previous 72 hours. | See also: Recent months at Point Perpendicular
Date/Time
EST
Temp
°C
App
Temp
°C
Dew
Point
°C
Rel
Hum
%
Delta-T
°C
Wind Press
QNH
hPa
Press
MSL
hPa
Rain since
9am
mm
Dir  Spd
km/h
Gust
km/h
Spd
kts
Gust
kts
26/02:30pm 13.7 - 6.3 61 3.5 - - - - - 1017.2 1017.2 0.0
26/02:00pm 13.7 - 5.8 59 3.7 - - - - - 1017.3 1017.3 0.0
26/01:30pm 13.8 - 5.7 58 3.8 - - - - - 1017.5 1017.5 0.0
26/01:00pm 13.5 - 5.4 58 3.8 - - - - - 1017.6 1017.6 0.0
26/12:30pm 13.6 - 6.2 61 3.5 - - - - - 1017.9 1017.9 0.0
26/12:00pm 13.5 - 6.1 61 3.5 - - - - - 1018.6 1018.6 0.0
26/11:30am 13.4 - 6.3 62 3.4 - - - - - 1019.2 1019.2 0.0
26/11:00am 12.2 - 5.8 65 3.0 - - - - - 1019.6 1019.6 0.0
26/10:30am 11.6 - 5.3 65 2.9 - - - - - 1020.0 1020.0 0.0
26/10:00am 10.7 - 4.8 67 2.7 - - - - - 1020.2 1020.2 0.0
26/09:30am 10.1 - 4.9 70 2.4 - - - - - 1020.3 1020.3 0.0
26/09:00am 9.2 - 4.0 70 2.3 - - - - - 1020.3 1020.3 0.0
26/08:30am 8.6 - 4.0 73 2.0 - - - - - 1020.1 1020.1 0.0
26/08:00am 8.5 - 4.1 74 1.9 - - - - - 1020.2 1020.2 0.0
26/07:30am 8.0 - 4.0 76 1.7 - - - - - 1020.1 1020.1 0.0
26/07:00am 8.1 - 4.3 77 1.7 - - - - - 1019.8 1019.8 0.0
26/06:30am 8.4 - 4.4 76 1.8 - - - - - 1019.7 1019.7 0.0
26/06:00am 8.7 - 4.1 73 2.0 - - - - - 1019.1 1019.1 0.0
26/05:30am 8.6 - 4.2 74 1.9 - - - - - 1019.3 1019.3 0.0
26/05:00am 8.4 - 3.7 72 2.0 - - - - - 1019.1 1019.1 0.0
26/04:30am 7.8 - 3.7 75 1.8 - - - - - 1019.1 1019.1 0.0
26/04:00am 8.3 - 3.6 72 2.0 - - - - - 1018.8 1018.8 0.0
26/03:30am 9.1 - 2.9 65 2.7 - - - - - 1018.7 1018.7 0.0
26/03:00am 9.5 - 3.5 66 2.6 - - - - - 1019.1 1019.1 0.0
26/02:30am 9.8 - 3.8 66 2.6 - - - - - 1019.4 1019.4 0.0
26/02:00am 9.9 - 3.4 64 2.8 - - - - - 1019.6 1019.6 0.0
26/01:30am 9.8 - 3.1 63 2.9 - - - - - 1019.6 1019.6 0.0
26/01:00am 9.9 - 3.2 63 2.9 - - - - - 1019.4 1019.4 0.0
26/12:30am 10.1 - 3.2 62 3.0 - - - - - 1019.4 1019.4 0.0
26/12:00am 10.2 - 3.0 61 3.1 - - - - - 1019.5 1019.5 0.0
 
Date/Time
EST
Temp
°C
App
Temp
°C
Dew
Point
°C
Rel
Hum
%
Delta-T
°C
Wind Press
QNH
hPa
Press
MSL
hPa
Rain since
9am
mm
Dir  Spd
km/h
Gust
km/h
Spd
kts
Gust
kts
25/11:30pm 9.9 - 3.0 62 3.0 - - - - - 1019.6 1019.6 0.0
25/11:00pm 9.9 - 3.9 66 2.6 - - - - - 1020.0 1020.0 0.0
25/10:30pm 10.3 - 3.6 63 2.9 - - - - - 1019.9 1019.9 0.0
25/10:00pm 10.2 - 3.9 65 2.8 - - - - - 1019.9 1019.9 0.0
25/09:30pm 10.2 - 3.5 63 2.9 - - - - - 1019.9 1019.9 0.0
25/09:00pm 10.8 - 3.6 61 3.2 - - - - - 1019.8 1019.8 0.0
25/08:30pm 10.7 - 5.0 68 2.6 - - - - - 1019.8 1019.8 0.0
25/08:00pm 11.6 - 4.8 63 3.1 - - - - - 1019.7 1019.7 0.0
25/07:30pm 11.8 - 3.3 56 3.8 - - - - - 1019.7 1019.7 0.0
25/07:00pm 12.7 - 0.1 42 5.2 - - - - - 1019.5 1019.5 0.0
25/06:30pm 12.9 - 2.5 49 4.6 - - - - - 1018.9 1018.9 0.0
25/06:00pm 12.6 - 1.3 46 4.8 - - - - - 1019.0 1019.0 0.0
25/05:30pm 12.5 - 1.5 47 4.7 - - - - - 1018.8 1018.8 0.0
25/05:00pm 12.5 - 0.6 44 5.0 - - - - - 1018.6 1018.6 0.0
25/04:30pm 12.8 - 2.4 49 4.6 - - - - - 1018.1 1018.1 0.0
25/04:00pm 12.8 - 0.5 43 5.2 - - - - - 1018.0 1018.0 0.0
25/03:30pm 12.7 - -1.2 38 5.6 - - - - - 1018.0 1018.0 0.0
25/03:00pm 12.7 - 0.1 42 5.2 - - - - - 1017.6 1017.6 0.0
25/02:30pm 12.6 - 1.0 45 4.9 - - - - - 1017.5 1017.5 0.0
25/02:00pm 12.6 - 1.3 46 4.8 - - - - - 1017.4 1017.4 0.0
25/01:30pm 12.3 - 1.6 48 4.6 - - - - - 1017.2 1017.2 0.0
25/01:00pm 12.1 - 2.0 50 4.3 - - - - - 1017.3 1017.3 0.0
25/12:30pm 11.6 - 0.4 46 4.6 - - - - - 1017.2 1017.2 0.0
25/12:00pm 11.4 - 0.5 47 4.5 - - - - - 1017.4 1017.4 0.0
25/11:30am 11.0 - -0.2 46 4.5 - - - - - 1017.7 1017.7 0.0
25/11:00am 10.9 - 0.0 47 4.4 - - - - - 1017.9 1017.9 0.0
25/10:30am 10.7 - -0.1 47 4.4 - - - - - 1017.8 1017.8 0.0
25/10:00am 10.2 - 1.3 54 3.7 - - - - - 1017.8 1017.8 0.0
25/09:30am 9.2 - -0.4 51 3.8 - - - - - 1017.6 1017.6 0.0
25/09:00am 8.9 - -0.1 53 3.6 - - - - - 1017.3 1017.3 0.0
25/08:30am 8.4 - -0.1 55 3.4 - - - - - 1017.0 1017.0 0.0
25/08:00am 8.3 - 0.3 57 3.2 - - - - - 1016.6 1016.6 0.0
25/07:30am 8.1 - 0.6 59 3.0 - - - - - 1016.3 1016.3 0.0
25/07:00am 7.9 - 0.2 58 3.0 - - - - - 1016.0 1016.0 0.0
25/06:30am 7.7 - 1.1 63 2.7 - - - - - 1015.5 1015.5 0.0
25/06:00am 7.9 - 1.1 62 2.8 - - - - - 1015.2 1015.2 0.0
25/05:30am 8.0 - 2.3 67 2.4 - - - - - 1014.8 1014.8 0.0
25/05:00am 8.2 - 1.8 64 2.6 - - - - - 1014.5 1014.4 0.0
25/04:30am 8.4 - 1.3 61 2.9 - - - - - 1013.9 1013.8 0.0
25/04:00am 8.2 - 1.4 62 2.8 - - - - - 1013.7 1013.6 0.0
25/03:30am 8.0 - 1.2 62 2.8 - - - - - 1013.3 1013.2 0.0
25/03:00am 8.1 - 1.0 61 2.9 - - - - - 1013.0 1012.9 0.0
25/02:30am 8.3 - 1.0 60 3.0 - - - - - 1012.7 1012.6 0.0
25/02:00am 8.5 - 1.2 60 3.0 - - - - - 1012.4 1012.3 0.0
25/01:30am 8.5 - 1.6 62 2.8 - - - - - 1011.9 1011.8 0.0
25/01:00am 8.7 - 1.8 62 2.9 - - - - - 1011.4 1011.3 0.0
25/12:30am 8.7 - 1.1 59 3.1 - - - - - 1011.3 1011.2 0.0
25/12:00am 9.1 - 2.0 61 3.0 - - - - - 1010.8 1010.8 0.0
 
Date/Time
EST
Temp
°C
App
Temp
°C
Dew
Point
°C
Rel
Hum
%
Delta-T
°C
Wind Press
QNH
hPa
Press
MSL
hPa
Rain since
9am
mm
Dir  Spd
km/h
Gust
km/h
Spd
kts
Gust
kts
24/11:30pm 9.1 - 1.3 58 3.2 - - - - - 1010.5 1010.5 0.0
24/11:00pm 9.1 - 1.3 58 3.2 - - - - - 1010.1 1010.1 0.0
24/10:30pm 9.5 - 1.9 59 3.2 - - - - - 1009.7 1009.7 0.0
24/10:00pm 9.6 - 2.5 61 3.0 - - - - - 1009.3 1009.3 0.0
24/09:30pm 9.7 - 1.6 57 3.4 - - - - - 1009.0 1009.0 0.0
24/09:00pm 9.6 - 2.0 59 3.2 - - - - - 1008.5 1008.5 0.0
24/08:30pm 9.6 - 1.3 56 3.4 - - - - - 1007.7 1007.7 0.0
24/08:00pm 9.5 - 1.7 58 3.3 - - - - - 1007.0 1007.0 0.0
24/07:30pm 9.8 - 2.9 62 3.0 - - - - - 1006.2 1006.2 0.0
24/07:00pm 9.9 - 2.5 60 3.2 - - - - - 1005.3 1005.3 0.0
24/06:30pm 10.2 - 3.0 61 3.1 - - - - - 1004.7 1004.7 0.0
24/06:00pm 10.3 - 2.9 60 3.2 - - - - - 1004.2 1004.1 0.0
24/05:30pm 10.8 - 2.1 55 3.7 - - - - - 1003.7 1003.6 0.0
24/05:00pm 11.4 - 2.7 55 3.8 - - - - - 1003.3 1003.2 0.0
24/04:30pm 12.0 - 2.2 51 4.2 - - - - - 1002.7 1002.6 0.0
24/04:00pm 12.0 - 0.5 45 4.8 - - - - - 1002.7 1002.6 0.0
24/03:30pm 12.2 - 1.2 47 4.7 - - - - - 1002.8 1002.7 0.0
24/03:00pm 13.0 - 0.4 42 5.3 - - - - - 1001.9 1001.8 0.0
24/02:30pm 13.1 - 0.8 43 5.2 - - - - - 1001.6 1001.5 0.0
24/02:00pm 13.3 - 1.9 46 5.0 - - - - - 1001.1 1001.0 0.0
24/01:30pm 13.4 - 2.3 47 4.9 - - - - - 1000.8 1000.7 0.0
24/01:00pm 13.3 - 3.1 50 4.6 - - - - - 1001.5 1001.4 0.0
24/12:30pm 13.2 - 2.7 49 4.6 - - - - - 1001.6 1001.5 0.0
24/12:00pm 13.5 - 3.3 50 4.6 - - - - - 1001.8 1001.7 0.0
24/11:30am 13.6 - 3.9 52 4.4 - - - - - 1002.1 1002.0 0.0
24/11:00am 13.5 - 3.6 51 4.5 - - - - - 1002.6 1002.5 0.0
24/10:30am 13.8 - 3.6 50 4.6 - - - - - 1002.8 1002.7 0.0
24/10:00am 13.8 - 4.1 52 4.5 - - - - - 1002.9 1002.8 0.0
24/09:30am 13.6 - 3.9 52 4.4 - - - - - 1002.7 1002.6 0.0
24/09:00am 13.3 - 3.7 52 4.4 - - - - - 1002.3 1002.2 0.0
24/08:30am 13.2 - 4.9 57 3.9 - - - - - 1002.1 1002.0 0.0
24/08:00am 13.3 - 5.7 60 3.6 - - - - - 1001.8 1001.7 0.0
24/07:30am 13.1 - 6.5 64 3.2 - - - - - 1001.7 1001.6 0.0
24/07:00am 12.7 - 5.8 63 3.3 - - - - - 1001.3 1001.2 0.0
24/06:30am 12.2 - 5.6 64 3.1 - - - - - 1001.1 1001.0 0.0
24/06:00am 12.0 - 5.9 66 2.9 - - - - - 1000.8 1000.7 0.0
24/05:30am 13.3 - 6.2 62 3.4 - - - - - 1000.7 1000.6 0.0
24/05:00am 12.6 - 6.2 65 3.1 - - - - - 1000.7 1000.6 0.0
24/04:30am 12.4 - 6.0 65 3.0 - - - - - 1000.4 1000.3 0.0
24/04:00am 13.5 - 5.9 60 3.6 - - - - - 1000.6 1000.5 0.0
24/03:30am 13.4 - 6.0 61 3.5 - - - - - 1000.7 1000.6 0.0
24/03:00am 13.5 - 6.4 62 3.4 - - - - - 1000.9 1000.8 0.0
24/02:30am 13.3 - 6.2 62 3.4 - - - - - 1001.1 1001.0 0.0
24/02:00am 13.4 - 6.7 64 3.3 - - - - - 1001.4 1001.3 0.0
24/01:30am 13.5 - 7.5 67 3.0 - - - - - 1001.4 1001.3 0.0
24/01:00am 14.3 - 8.0 66 3.2 - - - - - 1001.6 1001.5 0.0
24/12:30am 14.1 - 8.5 69 2.8 - - - - - 1001.5 1001.4 0.0
24/12:00am 13.7 - 8.1 69 2.8 - - - - - 1001.8 1001.7 0.0
 
Date/Time
EST
Temp
°C
App
Temp
°C
Dew
Point
°C
Rel
Hum
%
Delta-T
°C
Wind Press
QNH
hPa
Press
MSL
hPa
Rain since
9am
mm
Dir  Spd
km/h
Gust
km/h
Spd
kts
Gust
kts
23/11:30pm 13.7 - 7.9 68 2.9 - - - - - 1002.3 1002.2 0.0
23/11:00pm 12.8 - 7.7 71 2.5 - - - - - 1002.8 1002.7 0.0
23/10:30pm 12.8 - 7.0 68 2.8 - - - - - 1003.0 1002.9 0.0
23/10:00pm 13.4 - 7.0 65 3.1 - - - - - 1003.3 1003.2 0.0
23/09:30pm 13.3 - 6.4 63 3.3 - - - - - 1003.9 1003.8 0.0
23/09:00pm 13.4 - 6.0 61 3.5 - - - - - 1004.0 1003.9 0.0
23/08:30pm 14.0 - 5.6 57 4.0 - - - - - 1004.3 1004.2 0.0
23/08:00pm 13.7 - 5.1 56 4.0 - - - - - 1004.5 1004.4 0.0
23/07:30pm 13.2 - 4.9 57 3.9 - - - - - 1004.8 1004.8 0.0
23/07:00pm 13.3 - 5.0 57 3.9 - - - - - 1004.8 1004.8 0.0
23/06:30pm 13.1 - 5.5 60 3.6 - - - - - 1005.1 1005.1 0.0
23/06:00pm 13.1 - 5.3 59 3.7 - - - - - 1005.3 1005.3 0.0
23/05:30pm 14.1 - 5.5 56 4.1 - - - - - 1005.2 1005.2 0.0
23/05:00pm 14.1 - 5.7 57 4.0 - - - - - 1005.2 1005.2 0.0
23/04:30pm 14.7 - 6.3 57 4.1 - - - - - 1005.2 1005.2 0.0
23/04:00pm 15.5 - 5.4 51 4.8 - - - - - 1005.3 1005.3 0.0
23/03:30pm 15.8 - 5.7 51 4.9 - - - - - 1005.5 1005.5 0.0
23/03:00pm 16.4 - 5.7 49 5.2 - - - - - 1005.9 1005.9 0.0

Other Formats:

Comma delimited format used in spreadsheet applications
http://www.bom.gov.au/fwo/IDN60801/IDN60801.95940.axf

JavaScript Object Notation format (JSON) in row-major order
http://www.bom.gov.au/fwo/IDN60801/IDN60801.95940.json